5T9

Maverick County Memorial International Airport

Eagle Pass, Texas, USA
METAR K5T9 210935Z AUTO 00000KT 10SM OVC013 25/21 A2988 RMK A01
Observed Flight Rules
Jun-21 @ 09:35 UTC (43 minutes ago) Marginal Visual Flight Rules
Visibility Clouds
10 miles
  • Overcast at 1,300' AGL
Temperatures Readings
Current 25°C / 77°F
Dewpoint 21°C / 70°F
Humidity 79%
Altimeter 29.88" Hg
Pressure 1012 hPa
Elevation 270
METAR K5T9 210935Z AUTO 00000KT 10SM OVC013 25/21 A2988 RMK A01
Observed Flight Rules
Jun-21 @ 09:35 UTC
(43 minutes ago)
MVFR
Clouds
  • Overcast at 1,300' AGL
Temperature Dewpoint
25°C / 77°F 21°C / 70°F
Humidity Altimeter Pressure
79% 29.88" Hg 1012 hPa